Riverton, Kansas
Current Conditions -  °F | °C
As of 5:53 AM on Tuesday 27 Jan 2015 (Local Time) from KJLN Reporting Station
Clear Clear  
Wind Chill: 38°   Ceiling: Unl
Heat Index: 38°   Visibility: 10mi
Dew Point: 31°   Wind: 3mph
Humidity: 76%   Direction: 10°N
Pressure: 30.1"   Gusts: NA
Location:  37.08°N, 94.7°W
Report Text: KJLN 271153Z AUTO 01003KT 10SM CLR 03/M01 A3010 RMK AO2 SLP195 T00331006 10072 20011 53008
Loading
Personal Weather Stations






























Interactive Weather Map New forecast layout! Learn more

10-Day Weather Forecast

Advertisements
Track Severe Weather on mobile